sensor_id;sensor_type;location;lat;lon;timestamp;pressure;altitude;pressure_sealevel;temperature;humidity
43115;BME280;28727;50.068;14.452;2023-04-26T00:02:07;99092.44;;;6.65;53.02
43115;BME280;28727;50.068;14.452;2023-04-26T00:04:38;99076.81;;;6.63;52.57
43115;BME280;28727;50.068;14.452;2023-04-26T00:07:10;99079.59;;;6.62;52.73
43115;BME280;28727;50.068;14.452;2023-04-26T00:09:44;99084.97;;;6.60;52.79
43115;BME280;28727;50.068;14.452;2023-04-26T00:12:16;99083.19;;;6.61;52.41
43115;BME280;28727;50.068;14.452;2023-04-26T00:14:48;99080.41;;;6.62;52.46
43115;BME280;28727;50.068;14.452;2023-04-26T00:17:19;99088.81;;;6.66;52.42
43115;BME280;28727;50.068;14.452;2023-04-26T00:19:51;99081.75;;;6.66;52.45
43115;BME280;28727;50.068;14.452;2023-04-26T00:22:23;99085.75;;;6.70;52.09
43115;BME280;28727;50.068;14.452;2023-04-26T00:24:55;99084.38;;;6.66;51.82
43115;BME280;28727;50.068;14.452;2023-04-26T00:27:27;99085.81;;;6.61;51.83
43115;BME280;28727;50.068;14.452;2023-04-26T00:29:59;99084.78;;;6.53;52.06
43115;BME280;28727;50.068;14.452;2023-04-26T00:32:31;99091.66;;;6.54;52.03
43115;BME280;28727;50.068;14.452;2023-04-26T00:35:06;99091.81;;;6.53;51.99
43115;BME280;28727;50.068;14.452;2023-04-26T00:37:38;99088.97;;;6.46;52.16
43115;BME280;28727;50.068;14.452;2023-04-26T00:40:10;99090.16;;;6.34;52.16
43115;BME280;28727;50.068;14.452;2023-04-26T00:42:45;99099.13;;;6.32;52.03
43115;BME280;28727;50.068;14.452;2023-04-26T00:45:17;99094.06;;;6.30;52.19
43115;BME280;28727;50.068;14.452;2023-04-26T00:47:49;99102.50;;;6.24;52.78
43115;BME280;28727;50.068;14.452;2023-04-26T00:50:21;99103.63;;;6.22;52.91
43115;BME280;28727;50.068;14.452;2023-04-26T00:52:54;99107.22;;;6.21;53.22
43115;BME280;28727;50.068;14.452;2023-04-26T00:55:27;99109.44;;;6.15;53.18
43115;BME280;28727;50.068;14.452;2023-04-26T00:57:59;99110.88;;;6.10;53.92
43115;BME280;28727;50.068;14.452;2023-04-26T01:00:31;99118.34;;;6.05;53.81
43115;BME280;28727;50.068;14.452;2023-04-26T01:03:03;99129.09;;;6.02;54.16
43115;BME280;28727;50.068;14.452;2023-04-26T01:05:36;99127.38;;;5.93;54.53
43115;BME280;28727;50.068;14.452;2023-04-26T01:08:08;99132.88;;;5.90;54.90
43115;BME280;28727;50.068;14.452;2023-04-26T01:10:40;99130.66;;;5.85;55.20
43115;BME280;28727;50.068;14.452;2023-04-26T01:13:13;99129.84;;;5.85;55.24
43115;BME280;28727;50.068;14.452;2023-04-26T01:15:45;99133.44;;;5.84;55.29
43115;BME280;28727;50.068;14.452;2023-04-26T01:18:17;99133.88;;;5.79;55.77
43115;BME280;28727;50.068;14.452;2023-04-26T01:20:49;99131.81;;;5.83;55.63
43115;BME280;28727;50.068;14.452;2023-04-26T01:23:23;99135.25;;;5.83;55.92
43115;BME280;28727;50.068;14.452;2023-04-26T01:25:55;99138.66;;;5.84;56.38
43115;BME280;28727;50.068;14.452;2023-04-26T01:28:27;99139.66;;;5.83;56.04
43115;BME280;28727;50.068;14.452;2023-04-26T01:30:59;99143.53;;;5.78;56.28
43115;BME280;28727;50.068;14.452;2023-04-26T01:33:34;99141.06;;;5.77;56.71
43115;BME280;28727;50.068;14.452;2023-04-26T01:36:09;99142.84;;;5.76;57.15
43115;BME280;28727;50.068;14.452;2023-04-26T01:38:41;99137.63;;;5.76;56.85
43115;BME280;28727;50.068;14.452;2023-04-26T01:41:13;99143.38;;;5.80;57.03
43115;BME280;28727;50.068;14.452;2023-04-26T01:43:44;99142.56;;;5.80;57.16
43115;BME280;28727;50.068;14.452;2023-04-26T01:46:16;99140.63;;;5.82;57.02
43115;BME280;28727;50.068;14.452;2023-04-26T01:48:48;99142.94;;;5.85;56.95
43115;BME280;28727;50.068;14.452;2023-04-26T01:51:20;99151.41;;;5.88;56.67
43115;BME280;28727;50.068;14.452;2023-04-26T01:53:52;99151.22;;;5.90;56.38
43115;BME280;28727;50.068;14.452;2023-04-26T01:56:24;99148.63;;;5.90;56.03
43115;BME280;28727;50.068;14.452;2023-04-26T01:58:57;99138.97;;;5.90;56.21
43115;BME280;28727;50.068;14.452;2023-04-26T02:01:29;99145.84;;;5.91;56.05
43115;BME280;28727;50.068;14.452;2023-04-26T02:04:02;99144.06;;;5.92;55.94
43115;BME280;28727;50.068;14.452;2023-04-26T02:06:33;99148.47;;;5.91;55.78
43115;BME280;28727;50.068;14.452;2023-04-26T02:09:06;99148.78;;;5.88;55.84
43115;BME280;28727;50.068;14.452;2023-04-26T02:11:43;99147.78;;;5.89;56.11
43115;BME280;28727;50.068;14.452;2023-04-26T02:14:15;99145.44;;;5.86;55.85
43115;BME280;28727;50.068;14.452;2023-04-26T02:16:47;99146.00;;;5.80;56.22
43115;BME280;28727;50.068;14.452;2023-04-26T02:19:19;99148.09;;;5.76;56.17
43115;BME280;28727;50.068;14.452;2023-04-26T02:21:53;99144.34;;;5.79;56.54
43115;BME280;28727;50.068;14.452;2023-04-26T02:24:26;99149.03;;;5.85;56.09
43115;BME280;28727;50.068;14.452;2023-04-26T02:26:57;99147.00;;;5.89;56.33
43115;BME280;28727;50.068;14.452;2023-04-26T02:29:37;99149.84;;;5.95;56.28
43115;BME280;28727;50.068;14.452;2023-04-26T02:32:15;99149.44;;;5.90;56.61
43115;BME280;28727;50.068;14.452;2023-04-26T02:34:47;99150.13;;;5.92;56.42
43115;BME280;28727;50.068;14.452;2023-04-26T02:37:19;99155.38;;;5.92;56.45
43115;BME280;28727;50.068;14.452;2023-04-26T02:39:52;99149.16;;;5.93;56.90
43115;BME280;28727;50.068;14.452;2023-04-26T02:42:24;99154.28;;;5.95;56.77
43115;BME280;28727;50.068;14.452;2023-04-26T02:44:56;99150.97;;;5.93;57.17
43115;BME280;28727;50.068;14.452;2023-04-26T02:47:28;99147.91;;;5.97;56.91
43115;BME280;28727;50.068;14.452;2023-04-26T02:50:00;99152.44;;;6.05;56.81
43115;BME280;28727;50.068;14.452;2023-04-26T02:52:35;99146.06;;;6.07;56.84
43115;BME280;28727;50.068;14.452;2023-04-26T02:55:08;99145.63;;;6.12;56.53
43115;BME280;28727;50.068;14.452;2023-04-26T02:57:40;99150.34;;;6.08;56.52
43115;BME280;28727;50.068;14.452;2023-04-26T03:00:15;99148.66;;;6.07;56.65
43115;BME280;28727;50.068;14.452;2023-04-26T03:02:48;99159.72;;;6.11;56.65
43115;BME280;28727;50.068;14.452;2023-04-26T03:05:21;99159.03;;;6.09;56.94
43115;BME280;28727;50.068;14.452;2023-04-26T03:07:53;99155.44;;;6.10;56.75
43115;BME280;28727;50.068;14.452;2023-04-26T03:10:25;99154.75;;;6.08;56.79
43115;BME280;28727;50.068;14.452;2023-04-26T03:12:57;99153.78;;;6.09;56.94
43115;BME280;28727;50.068;14.452;2023-04-26T03:15:29;99156.72;;;6.06;56.88
43115;BME280;28727;50.068;14.452;2023-04-26T03:18:01;99156.97;;;6.03;57.01
43115;BME280;28727;50.068;14.452;2023-04-26T03:20:36;99154.09;;;6.06;57.27
43115;BME280;28727;50.068;14.452;2023-04-26T03:23:08;99155.44;;;6.10;57.14
43115;BME280;28727;50.068;14.452;2023-04-26T03:25:41;99159.56;;;6.12;56.83
43115;BME280;28727;50.068;14.452;2023-04-26T03:28:13;99164.81;;;6.12;57.37
43115;BME280;28727;50.068;14.452;2023-04-26T03:30:45;99168.56;;;6.10;57.25
43115;BME280;28727;50.068;14.452;2023-04-26T03:33:17;99171.16;;;6.10;57.06
43115;BME280;28727;50.068;14.452;2023-04-26T03:35:50;99174.75;;;6.09;57.16
43115;BME280;28727;50.068;14.452;2023-04-26T03:38:22;99176.94;;;6.13;57.10
43115;BME280;28727;50.068;14.452;2023-04-26T03:40:55;99173.22;;;6.16;57.19
43115;BME280;28727;50.068;14.452;2023-04-26T03:43:28;99179.16;;;6.18;57.58
43115;BME280;28727;50.068;14.452;2023-04-26T03:46:04;99179.94;;;6.18;57.33
43115;BME280;28727;50.068;14.452;2023-04-26T03:48:37;99176.66;;;6.16;57.20
43115;BME280;28727;50.068;14.452;2023-04-26T03:51:08;99180.13;;;6.17;57.54
43115;BME280;28727;50.068;14.452;2023-04-26T03:53:41;99183.25;;;6.21;57.29
43115;BME280;28727;50.068;14.452;2023-04-26T03:56:13;99177.88;;;6.22;57.41
43115;BME280;28727;50.068;14.452;2023-04-26T03:58:45;99187.81;;;6.18;57.06
43115;BME280;28727;50.068;14.452;2023-04-26T04:01:17;99189.22;;;6.13;57.19
43115;BME280;28727;50.068;14.452;2023-04-26T04:03:51;99192.97;;;6.10;57.41
43115;BME280;28727;50.068;14.452;2023-04-26T04:06:23;99191.19;;;6.11;57.27
43115;BME280;28727;50.068;14.452;2023-04-26T04:08:55;99201.38;;;6.14;57.62
43115;BME280;28727;50.068;14.452;2023-04-26T04:11:28;99199.03;;;6.11;57.69
43115;BME280;28727;50.068;14.452;2023-04-26T04:14:01;99203.59;;;6.09;57.52
43115;BME280;28727;50.068;14.452;2023-04-26T04:16:33;99199.63;;;6.05;58.49
43115;BME280;28727;50.068;14.452;2023-04-26T04:19:05;99201.94;;;6.08;58.04
43115;BME280;28727;50.068;14.452;2023-04-26T04:21:37;99203.47;;;6.10;58.05
43115;BME280;28727;50.068;14.452;2023-04-26T04:24:09;99202.91;;;6.07;58.07
43115;BME280;28727;50.068;14.452;2023-04-26T04:26:41;99204.28;;;6.11;57.69
43115;BME280;28727;50.068;14.452;2023-04-26T04:29:14;99199.31;;;6.18;57.95
43115;BME280;28727;50.068;14.452;2023-04-26T04:31:47;99200.53;;;6.13;58.00
43115;BME280;28727;50.068;14.452;2023-04-26T04:34:21;99207.06;;;6.09;58.15
43115;BME280;28727;50.068;14.452;2023-04-26T04:36:54;99200.00;;;6.10;57.86
43115;BME280;28727;50.068;14.452;2023-04-26T04:39:27;99205.13;;;6.02;58.02
43115;BME280;28727;50.068;14.452;2023-04-26T04:41:59;99206.09;;;6.01;58.51
43115;BME280;28727;50.068;14.452;2023-04-26T04:44:32;99214.38;;;6.06;58.31
43115;BME280;28727;50.068;14.452;2023-04-26T04:47:04;99209.97;;;6.06;58.40
43115;BME280;28727;50.068;14.452;2023-04-26T04:49:38;99213.25;;;6.08;58.23
43115;BME280;28727;50.068;14.452;2023-04-26T04:52:10;99215.44;;;6.13;58.55
43115;BME280;28727;50.068;14.452;2023-04-26T04:54:42;99219.00;;;6.22;58.51
43115;BME280;28727;50.068;14.452;2023-04-26T04:57:13;99221.44;;;6.33;57.89
43115;BME280;28727;50.068;14.452;2023-04-26T04:59:48;99214.28;;;6.35;57.42
43115;BME280;28727;50.068;14.452;2023-04-26T05:02:20;99225.72;;;6.34;57.42
43115;BME280;28727;50.068;14.452;2023-04-26T05:04:52;99228.59;;;6.40;57.93
43115;BME280;28727;50.068;14.452;2023-04-26T05:07:24;99234.41;;;6.62;57.83
43115;BME280;28727;50.068;14.452;2023-04-26T05:09:59;99226.00;;;6.85;57.36
43115;BME280;28727;50.068;14.452;2023-04-26T05:12:31;99219.66;;;7.06;56.93
43115;BME280;28727;50.068;14.452;2023-04-26T05:15:05;99222.41;;;7.22;56.58
43115;BME280;28727;50.068;14.452;2023-04-26T05:17:37;99222.16;;;7.51;56.31
43115;BME280;28727;50.068;14.452;2023-04-26T05:20:17;99220.22;;;7.78;55.48
43115;BME280;28727;50.068;14.452;2023-04-26T05:22:49;99228.94;;;8.05;55.83
43115;BME280;28727;50.068;14.452;2023-04-26T05:25:20;99236.44;;;8.17;55.50
43115;BME280;28727;50.068;14.452;2023-04-26T05:27:59;99233.31;;;8.48;53.62
43115;BME280;28727;50.068;14.452;2023-04-26T05:30:45;99232.78;;;8.86;53.69
43115;BME280;28727;50.068;14.452;2023-04-26T05:33:25;99234.19;;;9.23;52.22
43115;BME280;28727;50.068;14.452;2023-04-26T05:36:20;99238.63;;;9.38;52.12
43115;BME280;28727;50.068;14.452;2023-04-26T05:38:52;99234.53;;;9.36;51.27
43115;BME280;28727;50.068;14.452;2023-04-26T05:41:24;99244.41;;;9.34;51.82
43115;BME280;28727;50.068;14.452;2023-04-26T05:43:56;99250.69;;;9.65;50.97
43115;BME280;28727;50.068;14.452;2023-04-26T05:46:30;99243.22;;;10.01;50.23
43115;BME280;28727;50.068;14.452;2023-04-26T05:49:02;99249.31;;;10.02;49.75
43115;BME280;28727;50.068;14.452;2023-04-26T05:51:34;99246.66;;;10.10;49.92
43115;BME280;28727;50.068;14.452;2023-04-26T05:54:06;99245.66;;;10.27;48.78
43115;BME280;28727;50.068;14.452;2023-04-26T05:56:38;99255.69;;;10.48;48.35
43115;BME280;28727;50.068;14.452;2023-04-26T05:59:09;99257.66;;;10.46;47.67
43115;BME280;28727;50.068;14.452;2023-04-26T06:01:42;99251.25;;;10.40;47.81
43115;BME280;28727;50.068;14.452;2023-04-26T06:04:15;99262.28;;;10.44;47.52
43115;BME280;28727;50.068;14.452;2023-04-26T06:07:05;99256.44;;;10.56;47.51
43115;BME280;28727;50.068;14.452;2023-04-26T06:09:37;99257.63;;;10.54;46.80
43115;BME280;28727;50.068;14.452;2023-04-26T06:12:09;99247.44;;;10.82;46.30
43115;BME280;28727;50.068;14.452;2023-04-26T06:14:44;99261.56;;;10.97;46.50
43115;BME280;28727;50.068;14.452;2023-04-26T06:17:20;99257.63;;;10.93;46.00
43115;BME280;28727;50.068;14.452;2023-04-26T06:19:52;99264.31;;;10.73;45.68
43115;BME280;28727;50.068;14.452;2023-04-26T06:22:24;99262.34;;;10.66;45.40
43115;BME280;28727;50.068;14.452;2023-04-26T06:24:56;99265.13;;;10.73;46.02
43115;BME280;28727;50.068;14.452;2023-04-26T06:27:27;99272.16;;;10.50;46.64
43115;BME280;28727;50.068;14.452;2023-04-26T06:29:59;99271.69;;;10.38;46.11
43115;BME280;28727;50.068;14.452;2023-04-26T06:32:31;99260.84;;;10.25;46.55
43115;BME280;28727;50.068;14.452;2023-04-26T06:35:04;99260.22;;;9.99;47.14
43115;BME280;28727;50.068;14.452;2023-04-26T06:37:36;99265.47;;;10.07;46.43
43115;BME280;28727;50.068;14.452;2023-04-26T06:40:10;99271.25;;;10.10;46.51
43115;BME280;28727;50.068;14.452;2023-04-26T06:42:45;99278.53;;;10.00;46.77
43115;BME280;28727;50.068;14.452;2023-04-26T06:45:35;99282.97;;;9.92;47.84
43115;BME280;28727;50.068;14.452;2023-04-26T06:48:07;99281.81;;;9.78;47.44
43115;BME280;28727;50.068;14.452;2023-04-26T06:50:39;99273.41;;;9.99;47.32
43115;BME280;28727;50.068;14.452;2023-04-26T06:53:10;99281.97;;;10.17;47.11
43115;BME280;28727;50.068;14.452;2023-04-26T06:55:42;99272.28;;;10.64;46.44
43115;BME280;28727;50.068;14.452;2023-04-26T06:58:14;99276.72;;;11.03;44.97
43115;BME280;28727;50.068;14.452;2023-04-26T07:00:46;99282.22;;;10.93;44.59
43115;BME280;28727;50.068;14.452;2023-04-26T07:03:18;99283.44;;;10.83;44.46
43115;BME280;28727;50.068;14.452;2023-04-26T07:05:50;99294.09;;;10.58;45.16
43115;BME280;28727;50.068;14.452;2023-04-26T07:08:22;99286.50;;;10.55;45.71
43115;BME280;28727;50.068;14.452;2023-04-26T07:10:54;99288.50;;;10.53;45.33
43115;BME280;28727;50.068;14.452;2023-04-26T07:13:26;99289.56;;;10.28;45.53
43115;BME280;28727;50.068;14.452;2023-04-26T07:15:57;99289.34;;;10.46;45.61
43115;BME280;28727;50.068;14.452;2023-04-26T07:18:30;99285.53;;;10.95;45.39
43115;BME280;28727;50.068;14.452;2023-04-26T07:21:02;99279.47;;;11.18;45.18
43115;BME280;28727;50.068;14.452;2023-04-26T07:23:34;99287.13;;;11.35;43.66
43115;BME280;28727;50.068;14.452;2023-04-26T07:26:06;99291.78;;;11.25;43.54
43115;BME280;28727;50.068;14.452;2023-04-26T07:28:38;99288.09;;;11.34;43.23
43115;BME280;28727;50.068;14.452;2023-04-26T07:31:10;99292.84;;;11.16;43.54
43115;BME280;28727;50.068;14.452;2023-04-26T07:33:41;99295.22;;;11.03;43.25
43115;BME280;28727;50.068;14.452;2023-04-26T07:36:14;99294.25;;;10.96;43.79
43115;BME280;28727;50.068;14.452;2023-04-26T07:38:45;99301.03;;;10.59;43.97
43115;BME280;28727;50.068;14.452;2023-04-26T07:41:18;99298.03;;;10.62;44.29
43115;BME280;28727;50.068;14.452;2023-04-26T07:43:50;99300.38;;;10.57;44.42
43115;BME280;28727;50.068;14.452;2023-04-26T07:46:22;99300.41;;;10.41;44.49
43115;BME280;28727;50.068;14.452;2023-04-26T07:48:55;99306.03;;;10.14;44.90
43115;BME280;28727;50.068;14.452;2023-04-26T07:51:27;99304.06;;;10.00;45.29
43115;BME280;28727;50.068;14.452;2023-04-26T07:54:01;99301.75;;;9.97;45.49
43115;BME280;28727;50.068;14.452;2023-04-26T07:56:33;99300.44;;;9.93;45.47
43115;BME280;28727;50.068;14.452;2023-04-26T07:59:05;99295.97;;;10.09;45.79
43115;BME280;28727;50.068;14.452;2023-04-26T08:01:37;99299.94;;;10.30;44.57
43115;BME280;28727;50.068;14.452;2023-04-26T08:04:09;99298.97;;;10.31;44.55
43115;BME280;28727;50.068;14.452;2023-04-26T08:06:41;99292.34;;;10.82;43.82
43115;BME280;28727;50.068;14.452;2023-04-26T08:09:16;99296.75;;;11.28;42.99
43115;BME280;28727;50.068;14.452;2023-04-26T08:11:48;99294.34;;;11.19;42.87
43115;BME280;28727;50.068;14.452;2023-04-26T08:14:19;99292.69;;;10.79;42.90
43115;BME280;28727;50.068;14.452;2023-04-26T08:16:51;99294.63;;;10.54;43.92
43115;BME280;28727;50.068;14.452;2023-04-26T08:19:24;99295.19;;;10.17;44.32
43115;BME280;28727;50.068;14.452;2023-04-26T08:21:57;99296.19;;;9.83;44.42
43115;BME280;28727;50.068;14.452;2023-04-26T08:24:29;99301.78;;;9.89;44.82
43115;BME280;28727;50.068;14.452;2023-04-26T08:27:01;99292.69;;;10.23;44.53
43115;BME280;28727;50.068;14.452;2023-04-26T08:29:32;99303.22;;;10.32;43.80
43115;BME280;28727;50.068;14.452;2023-04-26T08:32:04;99303.72;;;10.11;43.85
43115;BME280;28727;50.068;14.452;2023-04-26T08:34:36;99296.31;;;9.90;44.25
43115;BME280;28727;50.068;14.452;2023-04-26T08:37:09;99311.34;;;9.65;43.89
43115;BME280;28727;50.068;14.452;2023-04-26T08:39:40;99311.63;;;9.46;43.60
43115;BME280;28727;50.068;14.452;2023-04-26T08:42:15;99312.28;;;9.40;44.31
43115;BME280;28727;50.068;14.452;2023-04-26T08:44:47;99320.00;;;9.33;44.24
43115;BME280;28727;50.068;14.452;2023-04-26T08:47:21;99322.13;;;9.22;43.04
43115;BME280;28727;50.068;14.452;2023-04-26T08:49:57;99328.69;;;9.10;43.17
43115;BME280;28727;50.068;14.452;2023-04-26T08:52:34;99328.63;;;8.93;43.94
43115;BME280;28727;50.068;14.452;2023-04-26T08:55:08;99327.59;;;8.86;43.41
43115;BME280;28727;50.068;14.452;2023-04-26T08:57:48;99331.53;;;8.82;43.18
43115;BME280;28727;50.068;14.452;2023-04-26T09:00:20;99335.84;;;8.83;43.56
43115;BME280;28727;50.068;14.452;2023-04-26T09:02:53;99341.91;;;8.84;44.03
43115;BME280;28727;50.068;14.452;2023-04-26T09:05:25;99336.91;;;8.73;43.57
43115;BME280;28727;50.068;14.452;2023-04-26T09:08:00;99337.09;;;8.79;44.01
43115;BME280;28727;50.068;14.452;2023-04-26T09:10:35;99344.16;;;8.71;45.00
43115;BME280;28727;50.068;14.452;2023-04-26T09:13:07;99342.19;;;8.73;45.10
43115;BME280;28727;50.068;14.452;2023-04-26T09:15:39;99339.88;;;8.70;44.98
43115;BME280;28727;50.068;14.452;2023-04-26T09:18:21;99331.50;;;8.74;46.33
43115;BME280;28727;50.068;14.452;2023-04-26T09:21:05;99335.66;;;8.85;45.96
43115;BME280;28727;50.068;14.452;2023-04-26T09:23:56;99331.91;;;8.95;45.78
43115;BME280;28727;50.068;14.452;2023-04-26T09:26:29;99339.56;;;9.15;45.60
43115;BME280;28727;50.068;14.452;2023-04-26T09:29:15;99333.19;;;9.33;45.24
43115;BME280;28727;50.068;14.452;2023-04-26T09:31:48;99330.75;;;9.56;44.31
43115;BME280;28727;50.068;14.452;2023-04-26T09:34:21;99330.13;;;10.11;43.76
43115;BME280;28727;50.068;14.452;2023-04-26T09:36:54;99322.03;;;10.92;42.13
43115;BME280;28727;50.068;14.452;2023-04-26T09:39:29;99317.25;;;11.49;41.23
43115;BME280;28727;50.068;14.452;2023-04-26T09:42:05;99324.56;;;11.78;39.63
43115;BME280;28727;50.068;14.452;2023-04-26T09:44:37;99309.59;;;11.85;40.08
43115;BME280;28727;50.068;14.452;2023-04-26T09:47:12;99317.75;;;11.53;40.55
43115;BME280;28727;50.068;14.452;2023-04-26T09:49:50;99309.25;;;11.34;41.46
43115;BME280;28727;50.068;14.452;2023-04-26T09:52:23;99312.44;;;11.30;41.17
43115;BME280;28727;50.068;14.452;2023-04-26T09:54:54;99307.03;;;11.23;40.91
43115;BME280;28727;50.068;14.452;2023-04-26T09:57:26;99312.69;;;11.12;40.08
43115;BME280;28727;50.068;14.452;2023-04-26T09:59:58;99311.06;;;11.03;40.18
43115;BME280;28727;50.068;14.452;2023-04-26T10:02:31;99302.25;;;10.88;39.88
43115;BME280;28727;50.068;14.452;2023-04-26T10:05:05;99309.19;;;10.81;40.15
43115;BME280;28727;50.068;14.452;2023-04-26T10:07:38;99304.06;;;10.79;39.44
43115;BME280;28727;50.068;14.452;2023-04-26T10:10:12;99302.84;;;10.98;39.84
43115;BME280;28727;50.068;14.452;2023-04-26T10:12:44;99306.16;;;11.31;38.67
43115;BME280;28727;50.068;14.452;2023-04-26T10:15:17;99293.88;;;11.61;38.48
43115;BME280;28727;50.068;14.452;2023-04-26T10:17:49;99310.09;;;11.58;37.20
43115;BME280;28727;50.068;14.452;2023-04-26T10:20:26;99299.28;;;11.44;37.13
43115;BME280;28727;50.068;14.452;2023-04-26T10:23:00;99311.13;;;11.26;37.05
43115;BME280;28727;50.068;14.452;2023-04-26T10:25:37;99314.22;;;11.06;38.05
43115;BME280;28727;50.068;14.452;2023-04-26T10:28:09;99322.09;;;10.84;37.17
43115;BME280;28727;50.068;14.452;2023-04-26T10:30:54;99318.88;;;10.49;38.09
43115;BME280;28727;50.068;14.452;2023-04-26T10:33:26;99310.97;;;10.33;37.39
43115;BME280;28727;50.068;14.452;2023-04-26T10:38:32;99315.78;;;10.21;38.38
43115;BME280;28727;50.068;14.452;2023-04-26T10:41:29;99312.16;;;10.31;37.37
43115;BME280;28727;50.068;14.452;2023-04-26T10:44:40;99313.91;;;10.54;37.74
43115;BME280;28727;50.068;14.452;2023-04-26T10:47:32;99313.19;;;10.77;37.35
43115;BME280;28727;50.068;14.452;2023-04-26T10:50:09;99297.41;;;10.99;36.35
43115;BME280;28727;50.068;14.452;2023-04-26T10:55:38;99290.47;;;11.29;35.62
43115;BME280;28727;50.068;14.452;2023-04-26T10:58:31;99293.16;;;11.44;35.99
43115;BME280;28727;50.068;14.452;2023-04-26T11:06:48;99290.16;;;11.24;35.44
43115;BME280;28727;50.068;14.452;2023-04-26T11:09:37;99291.00;;;11.47;34.97
43115;BME280;28727;50.068;14.452;2023-04-26T11:12:11;99279.09;;;11.74;34.71
43115;BME280;28727;50.068;14.452;2023-04-26T11:14:44;99279.25;;;12.10;34.40
43115;BME280;28727;50.068;14.452;2023-04-26T11:17:19;99274.38;;;12.66;33.49
43115;BME280;28727;50.068;14.452;2023-04-26T11:19:51;99268.59;;;12.77;33.15
43115;BME280;28727;50.068;14.452;2023-04-26T11:22:23;99266.13;;;12.76;32.15
43115;BME280;28727;50.068;14.452;2023-04-26T11:24:55;99276.63;;;12.69;32.55
43115;BME280;28727;50.068;14.452;2023-04-26T11:27:26;99270.06;;;12.50;33.25
43115;BME280;28727;50.068;14.452;2023-04-26T11:30:02;99276.81;;;12.23;34.26
43115;BME280;28727;50.068;14.452;2023-04-26T11:32:34;99278.91;;;12.13;34.88
43115;BME280;28727;50.068;14.452;2023-04-26T11:35:06;99283.56;;;12.11;33.93
43115;BME280;28727;50.068;14.452;2023-04-26T11:37:38;99279.47;;;12.38;34.05
43115;BME280;28727;50.068;14.452;2023-04-26T11:40:10;99278.03;;;12.65;33.76
43115;BME280;28727;50.068;14.452;2023-04-26T11:42:43;99277.03;;;13.02;33.85
43115;BME280;28727;50.068;14.452;2023-04-26T11:45:15;99274.69;;;13.43;32.98
43115;BME280;28727;50.068;14.452;2023-04-26T11:47:47;99276.31;;;13.44;32.77
43115;BME280;28727;50.068;14.452;2023-04-26T11:50:20;99278.22;;;13.50;31.90
43115;BME280;28727;50.068;14.452;2023-04-26T11:52:54;99273.25;;;13.26;31.72
43115;BME280;28727;50.068;14.452;2023-04-26T11:55:29;99276.25;;;13.01;32.03
43115;BME280;28727;50.068;14.452;2023-04-26T11:58:12;99276.16;;;12.80;32.18
43115;BME280;28727;50.068;14.452;2023-04-26T12:00:57;99279.47;;;12.82;32.83
43115;BME280;28727;50.068;14.452;2023-04-26T12:03:33;99281.28;;;12.67;32.90
43115;BME280;28727;50.068;14.452;2023-04-26T12:06:08;99286.97;;;12.49;33.33
43115;BME280;28727;50.068;14.452;2023-04-26T12:08:40;99286.50;;;12.46;33.08
43115;BME280;28727;50.068;14.452;2023-04-26T12:11:15;99282.88;;;12.47;32.49
43115;BME280;28727;50.068;14.452;2023-04-26T12:13:47;99290.34;;;12.43;32.73
43115;BME280;28727;50.068;14.452;2023-04-26T12:16:21;99292.00;;;12.44;32.87
43115;BME280;28727;50.068;14.452;2023-04-26T12:18:57;99286.31;;;12.32;33.19
43115;BME280;28727;50.068;14.452;2023-04-26T12:21:29;99287.78;;;12.35;33.38
43115;BME280;28727;50.068;14.452;2023-04-26T12:24:23;99294.38;;;12.39;33.81
43115;BME280;28727;50.068;14.452;2023-04-26T12:26:55;99286.41;;;12.39;33.04
43115;BME280;28727;50.068;14.452;2023-04-26T12:29:28;99286.41;;;12.39;33.65
43115;BME280;28727;50.068;14.452;2023-04-26T12:32:02;99287.06;;;12.41;33.18
43115;BME280;28727;50.068;14.452;2023-04-26T12:34:34;99283.19;;;12.14;33.89
43115;BME280;28727;50.068;14.452;2023-04-26T12:37:09;99282.63;;;12.04;34.60
43115;BME280;28727;50.068;14.452;2023-04-26T12:39:41;99289.31;;;12.15;34.12
43115;BME280;28727;50.068;14.452;2023-04-26T12:42:14;99289.59;;;12.20;33.61
43115;BME280;28727;50.068;14.452;2023-04-26T12:44:46;99279.81;;;12.20;33.39
43115;BME280;28727;50.068;14.452;2023-04-26T12:47:18;99281.56;;;12.28;33.35
43115;BME280;28727;50.068;14.452;2023-04-26T12:49:50;99282.94;;;12.39;33.16
43115;BME280;28727;50.068;14.452;2023-04-26T12:52:22;99283.78;;;12.54;33.26
43115;BME280;28727;50.068;14.452;2023-04-26T12:54:55;99269.25;;;12.64;32.85
43115;BME280;28727;50.068;14.452;2023-04-26T12:57:27;99272.44;;;12.75;32.97
43115;BME280;28727;50.068;14.452;2023-04-26T12:59:59;99265.88;;;12.70;32.95
43115;BME280;28727;50.068;14.452;2023-04-26T13:02:31;99271.34;;;12.69;32.78
43115;BME280;28727;50.068;14.452;2023-04-26T13:05:05;99271.06;;;12.64;32.32
43115;BME280;28727;50.068;14.452;2023-04-26T13:07:40;99265.88;;;12.70;33.21
43115;BME280;28727;50.068;14.452;2023-04-26T13:10:12;99272.91;;;12.78;32.13
43115;BME280;28727;50.068;14.452;2023-04-26T13:12:44;99262.66;;;12.75;33.03
43115;BME280;28727;50.068;14.452;2023-04-26T13:15:16;99269.38;;;12.92;33.23
43115;BME280;28727;50.068;14.452;2023-04-26T13:17:48;99268.72;;;13.20;32.57
43115;BME280;28727;50.068;14.452;2023-04-26T13:20:20;99274.28;;;13.10;32.15
43115;BME280;28727;50.068;14.452;2023-04-26T13:22:56;99274.28;;;13.10;32.06
43115;BME280;28727;50.068;14.452;2023-04-26T13:25:27;99257.91;;;13.21;31.54
43115;BME280;28727;50.068;14.452;2023-04-26T13:27:59;99261.47;;;13.28;31.45
43115;BME280;28727;50.068;14.452;2023-04-26T13:30:31;99263.50;;;13.11;30.37
43115;BME280;28727;50.068;14.452;2023-04-26T13:33:03;99266.66;;;12.86;31.94
43115;BME280;28727;50.068;14.452;2023-04-26T13:35:37;99269.69;;;12.83;31.77
43115;BME280;28727;50.068;14.452;2023-04-26T13:38:09;99277.72;;;12.75;31.86
43115;BME280;28727;50.068;14.452;2023-04-26T13:40:43;99269.69;;;12.68;32.37